sensor_id;sensor_type;location;lat;lon;timestamp;P1;durP1;ratioP1;P2;durP2;ratioP2
21899;SDS011;11114;50.658;12.704;2022-07-17T00:02:07;13.30;;;12.10;;
21899;SDS011;11114;50.658;12.704;2022-07-17T00:04:33;13.38;;;11.98;;
21899;SDS011;11114;50.658;12.704;2022-07-17T00:07:00;12.70;;;11.70;;
21899;SDS011;11114;50.658;12.704;2022-07-17T00:09:27;13.35;;;12.25;;
21899;SDS011;11114;50.658;12.704;2022-07-17T00:11:54;12.85;;;11.85;;
21899;SDS011;11114;50.658;12.704;2022-07-17T00:14:21;13.07;;;11.85;;
21899;SDS011;11114;50.658;12.704;2022-07-17T00:16:48;13.10;;;12.00;;
21899;SDS011;11114;50.658;12.704;2022-07-17T00:19:15;13.75;;;12.65;;
21899;SDS011;11114;50.658;12.704;2022-07-17T00:21:42;13.35;;;12.13;;
21899;SDS011;11114;50.658;12.704;2022-07-17T00:24:09;13.35;;;12.30;;
21899;SDS011;11114;50.658;12.704;2022-07-17T00:26:37;13.32;;;12.18;;
21899;SDS011;11114;50.658;12.704;2022-07-17T00:29:03;13.48;;;12.48;;
21899;SDS011;11114;50.658;12.704;2022-07-17T00:31:30;13.55;;;12.40;;
21899;SDS011;11114;50.658;12.704;2022-07-17T00:33:58;13.30;;;12.23;;
21899;SDS011;11114;50.658;12.704;2022-07-17T00:36:24;13.88;;;12.30;;
21899;SDS011;11114;50.658;12.704;2022-07-17T00:38:52;13.60;;;12.25;;
21899;SDS011;11114;50.658;12.704;2022-07-17T00:41:18;13.50;;;12.20;;
21899;SDS011;11114;50.658;12.704;2022-07-17T00:43:45;13.90;;;12.60;;
21899;SDS011;11114;50.658;12.704;2022-07-17T00:46:13;13.70;;;12.60;;
21899;SDS011;11114;50.658;12.704;2022-07-17T00:48:40;13.65;;;12.48;;
21899;SDS011;11114;50.658;12.704;2022-07-17T00:51:07;13.70;;;12.63;;
21899;SDS011;11114;50.658;12.704;2022-07-17T00:53:35;13.68;;;12.38;;
21899;SDS011;11114;50.658;12.704;2022-07-17T00:56:03;14.02;;;12.70;;
21899;SDS011;11114;50.658;12.704;2022-07-17T00:58:33;14.05;;;12.77;;
21899;SDS011;11114;50.658;12.704;2022-07-17T01:01:03;13.80;;;12.52;;
21899;SDS011;11114;50.658;12.704;2022-07-17T01:03:33;13.90;;;12.80;;
21899;SDS011;11114;50.658;12.704;2022-07-17T01:06:00;13.95;;;12.73;;
21899;SDS011;11114;50.658;12.704;2022-07-17T01:08:27;13.75;;;12.75;;
21899;SDS011;11114;50.658;12.704;2022-07-17T01:10:54;13.88;;;12.77;;
21899;SDS011;11114;50.658;12.704;2022-07-17T01:13:21;14.23;;;13.02;;
21899;SDS011;11114;50.658;12.704;2022-07-17T01:15:49;13.88;;;12.77;;
21899;SDS011;11114;50.658;12.704;2022-07-17T01:18:16;13.80;;;12.65;;
21899;SDS011;11114;50.658;12.704;2022-07-17T01:20:45;14.75;;;13.20;;
21899;SDS011;11114;50.658;12.704;2022-07-17T01:23:13;13.70;;;12.52;;
21899;SDS011;11114;50.658;12.704;2022-07-17T01:25:41;14.38;;;13.27;;
21899;SDS011;11114;50.658;12.704;2022-07-17T01:28:09;14.52;;;13.30;;
21899;SDS011;11114;50.658;12.704;2022-07-17T01:30:36;14.50;;;13.20;;
21899;SDS011;11114;50.658;12.704;2022-07-17T01:33:03;14.70;;;13.40;;
21899;SDS011;11114;50.658;12.704;2022-07-17T01:35:30;14.98;;;13.50;;
21899;SDS011;11114;50.658;12.704;2022-07-17T01:37:57;14.57;;;13.38;;
21899;SDS011;11114;50.658;12.704;2022-07-17T01:40:24;13.95;;;12.95;;
21899;SDS011;11114;50.658;12.704;2022-07-17T01:42:50;14.07;;;12.77;;
21899;SDS011;11114;50.658;12.704;2022-07-17T01:45:18;13.82;;;12.88;;
21899;SDS011;11114;50.658;12.704;2022-07-17T01:47:46;14.80;;;13.30;;
21899;SDS011;11114;50.658;12.704;2022-07-17T01:50:13;14.20;;;13.07;;
21899;SDS011;11114;50.658;12.704;2022-07-17T01:52:42;14.20;;;12.93;;
21899;SDS011;11114;50.658;12.704;2022-07-17T01:55:10;13.95;;;12.93;;
21899;SDS011;11114;50.658;12.704;2022-07-17T01:57:39;14.18;;;12.98;;
21899;SDS011;11114;50.658;12.704;2022-07-17T02:00:08;14.10;;;12.90;;
21899;SDS011;11114;50.658;12.704;2022-07-17T02:02:38;13.88;;;12.82;;
21899;SDS011;11114;50.658;12.704;2022-07-17T02:05:04;14.00;;;12.77;;
21899;SDS011;11114;50.658;12.704;2022-07-17T02:07:32;13.95;;;12.85;;
21899;SDS011;11114;50.658;12.704;2022-07-17T02:10:00;13.80;;;12.60;;
21899;SDS011;11114;50.658;12.704;2022-07-17T02:12:33;13.90;;;12.82;;
21899;SDS011;11114;50.658;12.704;2022-07-17T02:15:04;14.50;;;13.25;;
21899;SDS011;11114;50.658;12.704;2022-07-17T02:17:32;14.48;;;13.10;;
21899;SDS011;11114;50.658;12.704;2022-07-17T02:19:59;13.75;;;12.65;;
21899;SDS011;11114;50.658;12.704;2022-07-17T02:22:26;14.60;;;13.40;;
21899;SDS011;11114;50.658;12.704;2022-07-17T02:24:54;15.00;;;13.50;;
21899;SDS011;11114;50.658;12.704;2022-07-17T02:27:21;14.27;;;13.07;;
21899;SDS011;11114;50.658;12.704;2022-07-17T02:29:48;14.75;;;13.43;;
21899;SDS011;11114;50.658;12.704;2022-07-17T02:32:15;14.75;;;13.52;;
21899;SDS011;11114;50.658;12.704;2022-07-17T02:34:42;14.18;;;13.05;;
21899;SDS011;11114;50.658;12.704;2022-07-17T02:37:09;15.00;;;13.60;;
21899;SDS011;11114;50.658;12.704;2022-07-17T02:39:36;14.93;;;13.50;;
21899;SDS011;11114;50.658;12.704;2022-07-17T02:42:25;14.88;;;13.57;;
21899;SDS011;11114;50.658;12.704;2022-07-17T02:44:53;14.10;;;13.10;;
21899;SDS011;11114;50.658;12.704;2022-07-17T02:47:31;14.70;;;13.50;;
21899;SDS011;11114;50.658;12.704;2022-07-17T02:49:59;15.43;;;13.82;;
21899;SDS011;11114;50.658;12.704;2022-07-17T02:52:28;14.38;;;13.00;;
21899;SDS011;11114;50.658;12.704;2022-07-17T02:54:55;14.30;;;13.00;;
21899;SDS011;11114;50.658;12.704;2022-07-17T02:57:22;14.35;;;13.05;;
21899;SDS011;11114;50.658;12.704;2022-07-17T02:59:49;14.60;;;13.57;;
21899;SDS011;11114;50.658;12.704;2022-07-17T03:02:15;14.13;;;13.02;;
21899;SDS011;11114;50.658;12.704;2022-07-17T03:04:42;14.93;;;13.38;;
21899;SDS011;11114;50.658;12.704;2022-07-17T03:07:09;14.32;;;13.13;;
21899;SDS011;11114;50.658;12.704;2022-07-17T03:09:36;13.93;;;12.90;;
21899;SDS011;11114;50.658;12.704;2022-07-17T03:12:03;14.25;;;12.77;;
21899;SDS011;11114;50.658;12.704;2022-07-17T03:14:31;14.43;;;13.02;;
21899;SDS011;11114;50.658;12.704;2022-07-17T03:16:58;14.40;;;13.15;;
21899;SDS011;11114;50.658;12.704;2022-07-17T03:19:25;14.55;;;13.30;;
21899;SDS011;11114;50.658;12.704;2022-07-17T03:21:51;14.48;;;13.40;;
21899;SDS011;11114;50.658;12.704;2022-07-17T03:24:18;14.88;;;13.48;;
21899;SDS011;11114;50.658;12.704;2022-07-17T03:26:45;14.38;;;13.07;;
21899;SDS011;11114;50.658;12.704;2022-07-17T03:29:12;14.23;;;13.05;;
21899;SDS011;11114;50.658;12.704;2022-07-17T03:31:39;14.20;;;13.00;;
21899;SDS011;11114;50.658;12.704;2022-07-17T03:34:06;14.50;;;13.30;;
21899;SDS011;11114;50.658;12.704;2022-07-17T03:36:32;14.68;;;13.48;;
21899;SDS011;11114;50.658;12.704;2022-07-17T03:38:59;14.40;;;13.18;;
21899;SDS011;11114;50.658;12.704;2022-07-17T03:41:26;14.95;;;13.80;;
21899;SDS011;11114;50.658;12.704;2022-07-17T03:43:53;14.88;;;13.57;;
21899;SDS011;11114;50.658;12.704;2022-07-17T03:46:21;14.32;;;13.13;;
21899;SDS011;11114;50.658;12.704;2022-07-17T03:48:48;14.65;;;13.45;;
21899;SDS011;11114;50.658;12.704;2022-07-17T03:51:15;15.43;;;14.02;;
21899;SDS011;11114;50.658;12.704;2022-07-17T03:53:42;15.60;;;14.30;;
21899;SDS011;11114;50.658;12.704;2022-07-17T03:56:08;15.38;;;14.20;;
21899;SDS011;11114;50.658;12.704;2022-07-17T03:58:35;14.90;;;13.77;;
21899;SDS011;11114;50.658;12.704;2022-07-17T04:01:02;15.07;;;13.88;;
21899;SDS011;11114;50.658;12.704;2022-07-17T04:03:29;14.90;;;13.80;;
21899;SDS011;11114;50.658;12.704;2022-07-17T04:05:56;15.25;;;13.98;;
21899;SDS011;11114;50.658;12.704;2022-07-17T04:08:22;15.23;;;14.02;;
21899;SDS011;11114;50.658;12.704;2022-07-17T04:10:49;15.50;;;14.00;;
21899;SDS011;11114;50.658;12.704;2022-07-17T04:13:16;15.27;;;13.82;;
21899;SDS011;11114;50.658;12.704;2022-07-17T04:15:43;15.85;;;14.15;;
21899;SDS011;11114;50.658;12.704;2022-07-17T04:18:16;15.20;;;14.10;;
21899;SDS011;11114;50.658;12.704;2022-07-17T04:20:43;16.10;;;14.90;;
21899;SDS011;11114;50.658;12.704;2022-07-17T04:23:10;15.88;;;14.27;;
21899;SDS011;11114;50.658;12.704;2022-07-17T04:25:37;14.98;;;13.77;;
21899;SDS011;11114;50.658;12.704;2022-07-17T04:28:04;15.57;;;14.10;;
21899;SDS011;11114;50.658;12.704;2022-07-17T04:30:31;15.35;;;13.90;;
21899;SDS011;11114;50.658;12.704;2022-07-17T04:32:58;15.73;;;14.30;;
21899;SDS011;11114;50.658;12.704;2022-07-17T04:35:25;15.63;;;14.30;;
21899;SDS011;11114;50.658;12.704;2022-07-17T04:37:52;15.10;;;13.90;;
21899;SDS011;11114;50.658;12.704;2022-07-17T04:40:19;15.13;;;13.93;;
21899;SDS011;11114;50.658;12.704;2022-07-17T04:42:46;15.35;;;13.77;;
21899;SDS011;11114;50.658;12.704;2022-07-17T04:45:13;15.48;;;14.18;;
21899;SDS011;11114;50.658;12.704;2022-07-17T04:47:40;15.32;;;14.13;;
21899;SDS011;11114;50.658;12.704;2022-07-17T04:50:08;15.60;;;14.15;;
21899;SDS011;11114;50.658;12.704;2022-07-17T04:52:35;15.63;;;14.23;;
21899;SDS011;11114;50.658;12.704;2022-07-17T04:55:02;15.48;;;14.20;;
21899;SDS011;11114;50.658;12.704;2022-07-17T04:57:29;15.27;;;13.98;;
21899;SDS011;11114;50.658;12.704;2022-07-17T04:59:56;15.65;;;14.20;;
21899;SDS011;11114;50.658;12.704;2022-07-17T05:02:23;15.20;;;13.90;;
21899;SDS011;11114;50.658;12.704;2022-07-17T05:04:50;15.77;;;14.30;;
21899;SDS011;11114;50.658;12.704;2022-07-17T05:07:17;15.13;;;13.85;;
21899;SDS011;11114;50.658;12.704;2022-07-17T05:09:43;15.15;;;13.98;;
21899;SDS011;11114;50.658;12.704;2022-07-17T05:12:10;16.10;;;14.63;;
21899;SDS011;11114;50.658;12.704;2022-07-17T05:14:38;15.88;;;14.57;;
21899;SDS011;11114;50.658;12.704;2022-07-17T05:17:04;15.48;;;14.20;;
21899;SDS011;11114;50.658;12.704;2022-07-17T05:19:31;14.52;;;13.43;;
21899;SDS011;11114;50.658;12.704;2022-07-17T05:21:58;14.80;;;13.70;;
21899;SDS011;11114;50.658;12.704;2022-07-17T05:24:25;15.07;;;13.85;;
21899;SDS011;11114;50.658;12.704;2022-07-17T05:26:52;15.20;;;14.00;;
21899;SDS011;11114;50.658;12.704;2022-07-17T05:29:19;15.70;;;14.30;;
21899;SDS011;11114;50.658;12.704;2022-07-17T05:31:46;15.50;;;14.20;;
21899;SDS011;11114;50.658;12.704;2022-07-17T05:34:13;15.60;;;14.07;;
21899;SDS011;11114;50.658;12.704;2022-07-17T05:36:40;15.20;;;13.93;;
21899;SDS011;11114;50.658;12.704;2022-07-17T05:39:07;15.73;;;14.43;;
21899;SDS011;11114;50.658;12.704;2022-07-17T05:41:34;15.18;;;14.07;;
21899;SDS011;11114;50.658;12.704;2022-07-17T05:44:01;15.55;;;14.25;;
21899;SDS011;11114;50.658;12.704;2022-07-17T05:46:28;16.48;;;15.07;;
21899;SDS011;11114;50.658;12.704;2022-07-17T05:48:55;15.68;;;14.30;;
21899;SDS011;11114;50.658;12.704;2022-07-17T05:51:23;15.52;;;14.23;;
21899;SDS011;11114;50.658;12.704;2022-07-17T05:53:51;15.75;;;14.45;;
21899;SDS011;11114;50.658;12.704;2022-07-17T05:56:18;16.10;;;14.70;;
21899;SDS011;11114;50.658;12.704;2022-07-17T05:58:46;15.57;;;14.38;;
21899;SDS011;11114;50.658;12.704;2022-07-17T06:01:12;15.45;;;14.13;;
21899;SDS011;11114;50.658;12.704;2022-07-17T06:03:39;14.77;;;13.57;;
21899;SDS011;11114;50.658;12.704;2022-07-17T06:06:06;15.50;;;14.10;;
21899;SDS011;11114;50.658;12.704;2022-07-17T06:08:33;15.55;;;14.20;;
21899;SDS011;11114;50.658;12.704;2022-07-17T06:11:00;15.43;;;14.23;;
21899;SDS011;11114;50.658;12.704;2022-07-17T06:13:26;16.33;;;14.90;;
21899;SDS011;11114;50.658;12.704;2022-07-17T06:15:53;16.60;;;15.27;;
21899;SDS011;11114;50.658;12.704;2022-07-17T06:18:22;15.98;;;14.65;;
21899;SDS011;11114;50.658;12.704;2022-07-17T06:20:52;15.48;;;14.18;;
21899;SDS011;11114;50.658;12.704;2022-07-17T06:23:18;16.13;;;14.18;;
21899;SDS011;11114;50.658;12.704;2022-07-17T06:25:45;18.30;;;16.48;;
21899;SDS011;11114;50.658;12.704;2022-07-17T06:28:12;17.17;;;15.57;;
21899;SDS011;11114;50.658;12.704;2022-07-17T06:30:39;16.30;;;14.68;;
21899;SDS011;11114;50.658;12.704;2022-07-17T06:33:06;14.73;;;13.52;;
21899;SDS011;11114;50.658;12.704;2022-07-17T06:35:33;15.32;;;13.93;;
21899;SDS011;11114;50.658;12.704;2022-07-17T06:38:01;14.40;;;13.20;;
21899;SDS011;11114;50.658;12.704;2022-07-17T06:40:29;14.23;;;13.02;;
21899;SDS011;11114;50.658;12.704;2022-07-17T06:42:56;14.82;;;13.52;;
21899;SDS011;11114;50.658;12.704;2022-07-17T06:45:23;13.98;;;12.63;;
21899;SDS011;11114;50.658;12.704;2022-07-17T06:47:50;13.98;;;12.75;;
21899;SDS011;11114;50.658;12.704;2022-07-17T06:50:17;13.48;;;12.38;;
21899;SDS011;11114;50.658;12.704;2022-07-17T06:52:43;13.30;;;12.20;;
21899;SDS011;11114;50.658;12.704;2022-07-17T06:55:12;14.45;;;13.10;;
21899;SDS011;11114;50.658;12.704;2022-07-17T06:57:39;13.95;;;12.80;;
21899;SDS011;11114;50.658;12.704;2022-07-17T07:00:06;13.27;;;12.27;;
21899;SDS011;11114;50.658;12.704;2022-07-17T07:02:35;13.20;;;12.00;;
21899;SDS011;11114;50.658;12.704;2022-07-17T07:05:03;13.20;;;11.90;;
21899;SDS011;11114;50.658;12.704;2022-07-17T07:07:31;12.30;;;11.25;;
21899;SDS011;11114;50.658;12.704;2022-07-17T07:09:57;12.52;;;11.52;;
21899;SDS011;11114;50.658;12.704;2022-07-17T07:12:24;11.93;;;10.93;;
21899;SDS011;11114;50.658;12.704;2022-07-17T07:14:53;12.15;;;10.95;;
21899;SDS011;11114;50.658;12.704;2022-07-17T07:17:19;11.57;;;10.57;;
21899;SDS011;11114;50.658;12.704;2022-07-17T07:19:47;11.90;;;10.90;;
21899;SDS011;11114;50.658;12.704;2022-07-17T07:22:13;12.00;;;11.00;;
21899;SDS011;11114;50.658;12.704;2022-07-17T07:24:41;12.13;;;11.05;;
21899;SDS011;11114;50.658;12.704;2022-07-17T07:27:07;12.30;;;11.30;;
21899;SDS011;11114;50.658;12.704;2022-07-17T07:29:34;12.57;;;11.38;;
21899;SDS011;11114;50.658;12.704;2022-07-17T07:32:01;11.80;;;10.70;;
21899;SDS011;11114;50.658;12.704;2022-07-17T07:34:28;12.13;;;11.07;;
21899;SDS011;11114;50.658;12.704;2022-07-17T07:36:55;12.32;;;11.18;;
21899;SDS011;11114;50.658;12.704;2022-07-17T07:39:22;12.55;;;11.43;;
21899;SDS011;11114;50.658;12.704;2022-07-17T07:41:49;12.80;;;11.50;;
21899;SDS011;11114;50.658;12.704;2022-07-17T07:44:16;12.40;;;11.40;;
21899;SDS011;11114;50.658;12.704;2022-07-17T07:46:57;12.50;;;11.48;;
21899;SDS011;11114;50.658;12.704;2022-07-17T07:49:24;12.60;;;11.50;;
21899;SDS011;11114;50.658;12.704;2022-07-17T07:51:50;12.68;;;11.60;;
21899;SDS011;11114;50.658;12.704;2022-07-17T07:54:29;13.00;;;12.00;;
21899;SDS011;11114;50.658;12.704;2022-07-17T07:56:56;13.25;;;12.05;;
21899;SDS011;11114;50.658;12.704;2022-07-17T07:59:22;13.10;;;11.85;;
21899;SDS011;11114;50.658;12.704;2022-07-17T08:01:49;12.85;;;11.65;;
21899;SDS011;11114;50.658;12.704;2022-07-17T08:04:16;13.07;;;11.98;;
21899;SDS011;11114;50.658;12.704;2022-07-17T08:06:43;13.10;;;11.85;;
21899;SDS011;11114;50.658;12.704;2022-07-17T08:09:10;12.85;;;11.75;;
21899;SDS011;11114;50.658;12.704;2022-07-17T08:11:37;13.20;;;12.20;;
21899;SDS011;11114;50.658;12.704;2022-07-17T08:14:03;13.23;;;12.13;;
21899;SDS011;11114;50.658;12.704;2022-07-17T08:16:41;13.07;;;11.98;;
21899;SDS011;11114;50.658;12.704;2022-07-17T08:19:09;13.18;;;12.07;;
21899;SDS011;11114;50.658;12.704;2022-07-17T08:21:36;13.68;;;12.35;;
21899;SDS011;11114;50.658;12.704;2022-07-17T08:24:03;13.48;;;12.13;;
21899;SDS011;11114;50.658;12.704;2022-07-17T08:26:30;13.98;;;12.77;;
21899;SDS011;11114;50.658;12.704;2022-07-17T08:28:57;13.82;;;12.68;;
21899;SDS011;11114;50.658;12.704;2022-07-17T08:31:25;13.40;;;12.20;;
21899;SDS011;11114;50.658;12.704;2022-07-17T08:33:52;13.25;;;12.23;;
21899;SDS011;11114;50.658;12.704;2022-07-17T08:36:19;14.02;;;12.82;;
21899;SDS011;11114;50.658;12.704;2022-07-17T08:38:46;13.48;;;12.38;;
21899;SDS011;11114;50.658;12.704;2022-07-17T08:41:16;14.50;;;13.30;;
21899;SDS011;11114;50.658;12.704;2022-07-17T08:43:44;13.98;;;12.77;;
21899;SDS011;11114;50.658;12.704;2022-07-17T08:46:11;14.68;;;13.30;;
21899;SDS011;11114;50.658;12.704;2022-07-17T08:48:42;14.43;;;13.30;;
21899;SDS011;11114;50.658;12.704;2022-07-17T08:51:12;14.73;;;13.40;;
21899;SDS011;11114;50.658;12.704;2022-07-17T08:53:43;14.98;;;13.60;;
21899;SDS011;11114;50.658;12.704;2022-07-17T08:56:10;13.95;;;12.77;;
21899;SDS011;11114;50.658;12.704;2022-07-17T08:58:37;14.23;;;13.05;;
21899;SDS011;11114;50.658;12.704;2022-07-17T09:01:05;14.65;;;13.45;;
21899;SDS011;11114;50.658;12.704;2022-07-17T09:03:32;14.65;;;13.50;;
21899;SDS011;11114;50.658;12.704;2022-07-17T09:06:18;14.68;;;13.40;;
21899;SDS011;11114;50.658;12.704;2022-07-17T09:09:02;14.80;;;13.70;;
21899;SDS011;11114;50.658;12.704;2022-07-17T09:11:47;14.82;;;13.57;;
21899;SDS011;11114;50.658;12.704;2022-07-17T09:14:17;15.10;;;13.80;;
21899;SDS011;11114;50.658;12.704;2022-07-17T09:16:48;14.30;;;13.15;;
21899;SDS011;11114;50.658;12.704;2022-07-17T09:22:10;16.23;;;14.93;;
21899;SDS011;11114;50.658;12.704;2022-07-17T09:24:49;14.70;;;13.50;;
21899;SDS011;11114;50.658;12.704;2022-07-17T09:30:07;14.68;;;13.50;;
21899;SDS011;11114;50.658;12.704;2022-07-17T09:32:37;14.70;;;13.45;;
21899;SDS011;11114;50.658;12.704;2022-07-17T09:35:07;14.70;;;13.50;;
21899;SDS011;11114;50.658;12.704;2022-07-17T09:37:36;14.90;;;13.60;;
21899;SDS011;11114;50.658;12.704;2022-07-17T09:40:10;14.25;;;13.15;;
21899;SDS011;11114;50.658;12.704;2022-07-17T09:42:58;14.57;;;13.48;;
21899;SDS011;11114;50.658;12.704;2022-07-17T09:45:25;14.65;;;13.40;;
21899;SDS011;11114;50.658;12.704;2022-07-17T09:47:52;13.80;;;12.80;;
21899;SDS011;11114;50.658;12.704;2022-07-17T09:50:21;14.40;;;13.23;;
21899;SDS011;11114;50.658;12.704;2022-07-17T09:52:49;14.02;;;12.90;;
21899;SDS011;11114;50.658;12.704;2022-07-17T09:55:19;14.73;;;13.33;;
21899;SDS011;11114;50.658;12.704;2022-07-17T09:58:06;14.60;;;13.50;;
21899;SDS011;11114;50.658;12.704;2022-07-17T10:00:36;14.50;;;13.40;;
21899;SDS011;11114;50.658;12.704;2022-07-17T10:03:04;14.18;;;12.98;;
21899;SDS011;11114;50.658;12.704;2022-07-17T10:05:32;14.75;;;13.65;;
21899;SDS011;11114;50.658;12.704;2022-07-17T10:07:59;14.75;;;13.65;;
21899;SDS011;11114;50.658;12.704;2022-07-17T10:10:26;14.05;;;12.98;;
21899;SDS011;11114;50.658;12.704;2022-07-17T10:12:53;13.85;;;12.82;;
21899;SDS011;11114;50.658;12.704;2022-07-17T10:15:24;14.95;;;13.60;;
21899;SDS011;11114;50.658;12.704;2022-07-17T10:18:02;14.00;;;12.80;;
21899;SDS011;11114;50.658;12.704;2022-07-17T10:20:33;13.88;;;12.88;;
21899;SDS011;11114;50.658;12.704;2022-07-17T10:23:12;14.05;;;13.05;;
21899;SDS011;11114;50.658;12.704;2022-07-17T10:25:42;14.35;;;13.07;;
21899;SDS011;11114;50.658;12.704;2022-07-17T10:28:09;14.82;;;13.73;;
21899;SDS011;11114;50.658;12.704;2022-07-17T10:30:40;14.57;;;13.40;;
21899;SDS011;11114;50.658;12.704;2022-07-17T10:33:14;14.35;;;13.05;;
21899;SDS011;11114;50.658;12.704;2022-07-17T10:35:46;14.27;;;13.18;;
21899;SDS011;11114;50.658;12.704;2022-07-17T10:38:14;13.95;;;12.85;;
21899;SDS011;11114;50.658;12.704;2022-07-17T10:40:42;13.95;;;12.88;;
21899;SDS011;11114;50.658;12.704;2022-07-17T10:43:09;13.88;;;12.77;;
21899;SDS011;11114;50.658;12.704;2022-07-17T10:45:45;13.98;;;12.80;;
21899;SDS011;11114;50.658;12.704;2022-07-17T10:48:14;14.50;;;13.20;;
21899;SDS011;11114;50.658;12.704;2022-07-17T10:50:43;19.52;;;17.67;;
21899;SDS011;11114;50.658;12.704;2022-07-17T10:55:53;14.43;;;13.32;;
21899;SDS011;11114;50.658;12.704;2022-07-17T10:58:29;14.10;;;12.90;;
21899;SDS011;11114;50.658;12.704;2022-07-17T11:01:03;13.82;;;12.82;;
21899;SDS011;11114;50.658;12.704;2022-07-17T11:03:37;14.93;;;13.63;;
21899;SDS011;11114;50.658;12.704;2022-07-17T11:06:15;14.90;;;13.55;;
21899;SDS011;11114;50.658;12.704;2022-07-17T11:08:46;13.23;;;12.18;;
21899;SDS011;11114;50.658;12.704;2022-07-17T11:11:18;13.77;;;12.52;;
21899;SDS011;11114;50.658;12.704;2022-07-17T11:13:55;13.85;;;12.73;;
21899;SDS011;11114;50.658;12.704;2022-07-17T11:16:32;13.23;;;12.23;;
21899;SDS011;11114;50.658;12.704;2022-07-17T11:19:00;13.75;;;12.70;;
21899;SDS011;11114;50.658;12.704;2022-07-17T11:21:27;13.43;;;12.38;;
21899;SDS011;11114;50.658;12.704;2022-07-17T11:23:54;17.58;;;15.88;;
21899;SDS011;11114;50.658;12.704;2022-07-17T11:26:23;14.23;;;13.02;;
21899;SDS011;11114;50.658;12.704;2022-07-17T11:28:51;13.95;;;12.85;;
21899;SDS011;11114;50.658;12.704;2022-07-17T11:31:26;12.93;;;11.93;;
21899;SDS011;11114;50.658;12.704;2022-07-17T11:33:56;13.27;;;12.23;;
21899;SDS011;11114;50.658;12.704;2022-07-17T11:36:37;13.65;;;12.40;;
21899;SDS011;11114;50.658;12.704;2022-07-17T11:39:15;13.73;;;12.40;;
21899;SDS011;11114;50.658;12.704;2022-07-17T11:44:15;14.57;;;13.15;;
21899;SDS011;11114;50.658;12.704;2022-07-17T11:46:46;14.25;;;12.88;;
21899;SDS011;11114;50.658;12.704;2022-07-17T11:51:55;12.68;;;11.70;;
21899;SDS011;11114;50.658;12.704;2022-07-17T11:54:23;13.80;;;12.70;;
21899;SDS011;11114;50.658;12.704;2022-07-17T11:56:54;12.63;;;11.63;;
21899;SDS011;11114;50.658;12.704;2022-07-17T11:59:28;12.88;;;11.77;;
21899;SDS011;11114;50.658;12.704;2022-07-17T12:01:56;14.63;;;13.48;;
21899;SDS011;11114;50.658;12.704;2022-07-17T12:04:32;13.40;;;12.40;;
21899;SDS011;11114;50.658;12.704;2022-07-17T12:07:00;13.30;;;12.20;;
21899;SDS011;11114;50.658;12.704;2022-07-17T12:09:30;12.98;;;11.88;;
21899;SDS011;11114;50.658;12.704;2022-07-17T12:12:02;13.65;;;12.60;;
21899;SDS011;11114;50.658;12.704;2022-07-17T12:14:29;12.25;;;11.18;;
21899;SDS011;11114;50.658;12.704;2022-07-17T12:16:57;12.43;;;11.50;;
21899;SDS011;11114;50.658;12.704;2022-07-17T12:19:29;14.38;;;13.10;;
21899;SDS011;11114;50.658;12.704;2022-07-17T12:24:36;13.85;;;12.85;;
21899;SDS011;11114;50.658;12.704;2022-07-17T12:27:06;13.90;;;12.90;;
21899;SDS011;11114;50.658;12.704;2022-07-17T12:29:34;14.65;;;13.43;;
21899;SDS011;11114;50.658;12.704;2022-07-17T12:32:12;14.43;;;13.18;;
21899;SDS011;11114;50.658;12.704;2022-07-17T12:34:43;13.82;;;12.75;;
21899;SDS011;11114;50.658;12.704;2022-07-17T12:37:13;16.13;;;14.63;;
21899;SDS011;11114;50.658;12.704;2022-07-17T12:39:45;12.93;;;11.77;;
21899;SDS011;11114;50.658;12.704;2022-07-17T12:42:14;12.25;;;11.30;;
21899;SDS011;11114;50.658;12.704;2022-07-17T12:44:42;11.90;;;11.10;;
21899;SDS011;11114;50.658;12.704;2022-07-17T12:47:13;12.15;;;11.15;;
21899;SDS011;11114;50.658;12.704;2022-07-17T12:49:39;12.70;;;11.70;;
21899;SDS011;11114;50.658;12.704;2022-07-17T12:52:07;13.45;;;12.35;;
21899;SDS011;11114;50.658;12.704;2022-07-17T12:54:34;13.90;;;12.80;;
21899;SDS011;11114;50.658;12.704;2022-07-17T12:57:01;12.98;;;12.05;;
21899;SDS011;11114;50.658;12.704;2022-07-17T12:59:28;13.00;;;11.80;;
21899;SDS011;11114;50.658;12.704;2022-07-17T13:01:55;13.95;;;12.95;;
21899;SDS011;11114;50.658;12.704;2022-07-17T13:04:23;13.90;;;12.85;;
21899;SDS011;11114;50.658;12.704;2022-07-17T13:06:50;14.52;;;13.32;;
21899;SDS011;11114;50.658;12.704;2022-07-17T13:09:17;15.57;;;14.27;;
21899;SDS011;11114;50.658;12.704;2022-07-17T13:11:46;13.90;;;12.88;;
21899;SDS011;11114;50.658;12.704;2022-07-17T13:14:13;14.18;;;13.13;;
21899;SDS011;11114;50.658;12.704;2022-07-17T13:16:40;13.82;;;12.73;;
21899;SDS011;11114;50.658;12.704;2022-07-17T13:19:08;13.40;;;12.32;;
21899;SDS011;11114;50.658;12.704;2022-07-17T13:21:35;14.00;;;12.90;;
21899;SDS011;11114;50.658;12.704;2022-07-17T13:24:01;12.93;;;11.73;;
21899;SDS011;11114;50.658;12.704;2022-07-17T13:26:29;14.57;;;13.48;;
21899;SDS011;11114;50.658;12.704;2022-07-17T13:28:57;15.13;;;14.02;;
21899;SDS011;11114;50.658;12.704;2022-07-17T13:31:23;16.33;;;15.02;;
21899;SDS011;11114;50.658;12.704;2022-07-17T13:33:50;14.10;;;13.00;;
21899;SDS011;11114;50.658;12.704;2022-07-17T13:36:17;14.63;;;13.38;;
21899;SDS011;11114;50.658;12.704;2022-07-17T13:38:45;14.40;;;13.30;;
21899;SDS011;11114;50.658;12.704;2022-07-17T13:41:11;15.00;;;13.80;;
21899;SDS011;11114;50.658;12.704;2022-07-17T13:43:38;13.95;;;12.93;;
21899;SDS011;11114;50.658;12.704;2022-07-17T13:46:06;13.98;;;12.90;;
21899;SDS011;11114;50.658;12.704;2022-07-17T13:48:34;14.20;;;13.10;;
21899;SDS011;11114;50.658;12.704;2022-07-17T13:51:01;14.73;;;13.40;;
21899;SDS011;11114;50.658;12.704;2022-07-17T13:53:28;13.65;;;12.75;;
21899;SDS011;11114;50.658;12.704;2022-07-17T13:55:57;14.40;;;13.40;;
21899;SDS011;11114;50.658;12.704;2022-07-17T13:58:24;13.93;;;12.77;;
21899;SDS011;11114;50.658;12.704;2022-07-17T14:00:51;13.52;;;12.63;;
21899;SDS011;11114;50.658;12.704;2022-07-17T14:03:18;13.88;;;12.98;;
21899;SDS011;11114;50.658;12.704;2022-07-17T14:05:45;15.05;;;13.90;;
21899;SDS011;11114;50.658;12.704;2022-07-17T14:08:12;13.90;;;12.90;;
21899;SDS011;11114;50.658;12.704;2022-07-17T14:10:39;13.73;;;12.73;;
21899;SDS011;11114;50.658;12.704;2022-07-17T14:13:06;13.38;;;12.38;;
21899;SDS011;11114;50.658;12.704;2022-07-17T14:15:33;13.38;;;12.15;;
21899;SDS011;11114;50.658;12.704;2022-07-17T14:18:00;12.95;;;12.05;;
21899;SDS011;11114;50.658;12.704;2022-07-17T14:20:28;13.50;;;12.40;;
21899;SDS011;11114;50.658;12.704;2022-07-17T14:22:55;13.18;;;12.25;;
21899;SDS011;11114;50.658;12.704;2022-07-17T14:25:22;13.20;;;12.30;;
21899;SDS011;11114;50.658;12.704;2022-07-17T14:27:49;12.90;;;12.10;;
21899;SDS011;11114;50.658;12.704;2022-07-17T14:30:16;12.45;;;11.65;;
21899;SDS011;11114;50.658;12.704;2022-07-17T14:32:43;13.18;;;12.02;;